• Join FlightAware (Why Join?)
  • Login
  • US Flag 
06:09AM EDT


 

Airport Tracker/Info


-or-


 

Live Flight TrackerFlight Track Log ✈ LYM1725 ✈ 07-May-2013 ✈ KRIW - KDEN

Flight Track Log - Related Links

Times and Time Zones

All times are in EDT time to prevent confusion due to time zone crossing. See the LYM1725 flight status page for this flight to view local times or setup timezone preferences in your user account.

Time Position Orientation Groundspeed Altitude Reporting Facility
EDT Latitude Longitude Course Direction KTS MPH feet Rate Location/Type
09:24PM 43.0231 -108.4164 100° East 196 226 9,300  Level Denver Center
09:25PM 43.0128 -108.3406 100° East 213 245 10,700 1,380 Climbing Denver Center
09:26PM 42.9811 -108.2728 123° Southeast 211 243 12,200 1,500 Climbing Denver Center
09:27PM 42.9414 -108.2008 127° Southeast 211 243 13,800 1,260 Climbing Denver Center
09:28PM 42.9136 -108.1389 121° Southeast 206 237 14,900 1,080 Climbing Salt Lake Center
09:29PM 42.8739 -108.0669 127° Southeast 210 242 16,200 1,080 Climbing Salt Lake Center
09:30PM 42.8414 -107.9975 123° Southeast 218 251 17,200 1,020 Climbing Salt Lake Center
09:31PM 42.8097 -107.9131 117° Southeast 223 257 18,300 1,080 Climbing Salt Lake Center
09:32PM 42.7747 -107.8369 122° Southeast 227 261 19,500 900 Climbing Salt Lake Center
09:33PM 42.7450 -107.7764 124° Southeast 222 255 20,200 720 Climbing Salt Lake Center
09:34PM 42.6994 -107.7022 130° Southeast 226 260 21,000 360 Climbing Salt Lake Center
09:35PM 42.6539 -107.6356 133° Southeast 244 281 21,000  Level Salt Lake Center
09:36PM 42.6072 -107.5636 131° Southeast 262 302 21,000  Level Salt Lake Center
09:37PM 42.5542 -107.4764 130° Southeast 266 306 21,000  Level Salt Lake Center
09:38PM 42.5122 -107.3981 126° Southeast 268 308 21,000  Level Salt Lake Center
09:39PM 42.4831 -107.3436 126° Southeast 274 315 21,000  Level Denver Center
09:40PM 42.4222 -107.2417 129° Southeast 273 314 21,000  Level Denver Center
09:41PM 42.3767 -107.1669 130° Southeast 269 310 21,000  Level Denver Center
09:42PM 42.3261 -107.0806 128° Southeast 263 303 21,000  Level Denver Center
09:43PM 42.2836 -107.0067 128° Southeast 261 300 21,000  Level Denver Center
09:44PM 42.2422 -106.9319 127° Southeast 260 299 21,100  Climbing Denver Center
09:45PM 42.1928 -106.8472 128° Southeast 257 296 21,000 -60 Descending Denver Center
09:46PM 42.1564 -106.7875 129° Southeast 258 297 21,000  Level Denver Center
09:47PM 42.0931 -106.6997 134° Southeast 255 293 21,000  Level Denver Center
09:48PM 42.0469 -106.6489 141° Southeast 264 304 21,000  Level Denver Center
09:49PM 41.9881 -106.5758 137° Southeast 255 293 21,000  Level Denver Center
09:50PM 41.9319 -106.4972 134° Southeast 260 299 21,000  Level Denver Center
09:51PM 41.8950 -106.4381 130° Southeast 261 300 21,000  Level Denver Center
09:52PM 41.8331 -106.3461 132° Southeast 260 299 21,000  Level Denver Center
09:53PM 41.7897 -106.2911 137° Southeast 266 306 21,100  Climbing Denver Center
09:54PM 41.7217 -106.2061 137° Southeast 262 302 21,000 -60 Descending Denver Center
09:55PM 41.6700 -106.1406 137° Southeast 265 305 21,000  Level Denver Center
09:56PM 41.6164 -106.0803 140° Southeast 264 304 21,000  Level Denver Center
09:57PM 41.5578 -106.0075 137° Southeast 260 299 21,000  Level Denver Center
09:58PM 41.5061 -105.9414 136° Southeast 267 307 21,000  Level Denver Center
10:00PM 41.4489 -105.8694 137° Southeast 267 307 21,000  Level Denver Center
10:01PM 41.3992 -105.7956 132° Southeast 266 306 21,100 -60 Climbing Denver Center
10:02PM 41.3372 -105.7236 139° Southeast 265 305 20,900 -60 Descending Denver Center
10:03PM 41.2917 -105.6522 130° Southeast 263 303 21,000  Climbing Denver Center
10:04PM 41.2464 -105.5828 131° Southeast 262 302 21,000  Level Denver Center
10:05PM 41.1914 -105.4986 131° Southeast 267 307 21,000  Level Denver Center
10:06PM 41.1461 -105.4269 130° Southeast 267 307 21,000 -960 Level Denver Center
10:07PM 41.0953 -105.3381 127° Southeast 271 312 19,100 -1,860 Descending Denver Center
10:08PM 41.0475 -105.2642 131° Southeast 275 316 17,300 -1,860 Descending Denver Center
10:09PM 40.9917 -105.1881 134° Southeast 270 311 15,400 -1,920 Descending Denver Center
10:10PM 40.9375 -105.1256 139° Southeast 261 300 13,400 -1,200 Descending Denver Center
10:11PM 40.8836 -105.0583 137° Southeast 262 302 13,000 -240 Descending Denver Center
10:12PM 40.8228 -104.9917 140° Southeast 277 319 13,000  Level Denver Center
10:13PM 40.7567 -104.9344 147° Southeast 282 325 13,100  Climbing Denver Center
10:14PM 40.6800 -104.8875 155° Southeast 282 325 13,100 -540 Level Denver Center
10:15PM 40.6075 -104.8475 157° South 285 328 12,100 -1,260 Descending Denver Center
10:16PM 40.5289 -104.7956 153° Southeast 288 331 10,600 -1,320 Descending Denver Center
10:17PM 40.4633 -104.7461 150° Southeast 272 313 9,400 -840 Descending Denver Center
10:18PM 40.4017 -104.6917 146° Southeast 269 310 9,000 -240 Descending Denver Center
10:19PM 40.3300 -104.6544 158° South 276 318 9,000  Level Denver Center
10:20PM 40.2447 -104.6575 182° South 284 327 9,100  Climbing Denver Center
10:21PM 40.1672 -104.6556 179° South 280 322 9,000 -60 Descending Denver Center
10:22PM 40.0892 -104.6581 181° South 281 323 9,000 -360 Level Denver Center
10:23PM 40.0056 -104.6581 180° South 275 316 8,300 -1,080 Descending Denver Center
10:24PM 39.9397 -104.6597 181° South 238 274 6,900 -1,140 Descending Denver Center
10:25PM 39.8789 -104.6600 180° South 173 199 5,800 -720 Descending Denver Center
10:26PM 39.8408 -104.6606 181° South 144 166 5,400 -420 Descending Denver Center
10:28PM 39.8617 -104.6732 333° Northwest  Level Estimated
10:35PM 39.8617 -104.6732 187° South  Level Estimated
10:36PM 39.8617 -104.6732 187° South  Level Estimated
10:37PM 39.8617 -104.6732 187° South  Level Estimated